Time;durP1;ratioP1;P1;durP2;ratioP2;P2;SDS_P1;SDS_P2;PMS_P1;PMS_P2;Temp;Humidity;BMP_temperature;BMP_pressure;BME280_temperature;BME280_humidity;BME280_pressure;Samples;Min_cycle;Max_cycle;Signal;HPM_P1;HPM_P2
2023/07/07 00:01:42;;;;;;;2.38;2.28;;;18.00;99.90;;;;;;4169292;28;20117;-59
2023/07/07 00:04:03;;;;;;;2.13;1.92;;;17.90;99.90;;;;;;4164455;28;20406;-59
2023/07/07 00:06:23;;;;;;;4.30;2.47;;;18.00;99.90;;;;;;4162386;28;20056;-59
2023/07/07 00:08:42;;;;;;;2.55;2.45;;;17.90;99.90;;;;;;4168034;28;20356;-59
2023/07/07 00:11:04;;;;;;;3.00;2.78;;;17.90;99.90;;;;;;4166213;28;20048;-59
2023/07/07 00:13:24;;;;;;;4.10;2.70;;;17.80;99.90;;;;;;4162196;28;20121;-59
2023/07/07 00:15:44;;;;;;;2.63;2.53;;;17.80;99.90;;;;;;4159537;28;20120;-59
2023/07/07 00:18:04;;;;;;;2.65;2.50;;;17.80;99.90;;;;;;4173236;28;20605;-59
2023/07/07 00:20:24;;;;;;;1.95;1.85;;;17.90;99.90;;;;;;4171481;28;20087;-59
2023/07/07 00:22:45;;;;;;;2.78;2.67;;;17.90;99.90;;;;;;4167074;28;20044;-59
2023/07/07 00:25:06;;;;;;;3.25;2.90;;;17.90;99.90;;;;;;4165739;28;20329;-59
2023/07/07 00:27:26;;;;;;;2.83;2.63;;;17.90;99.90;;;;;;4164494;28;20269;-59
2023/07/07 00:29:46;;;;;;;3.17;2.28;;;17.80;99.90;;;;;;4169685;28;20061;-59
2023/07/07 00:32:06;;;;;;;2.65;2.50;;;17.70;99.90;;;;;;4168522;28;20049;-59
2023/07/07 00:34:29;;;;;;;2.95;2.75;;;17.60;99.90;;;;;;4168313;28;20056;-59
2023/07/07 00:36:50;;;;;;;2.53;2.50;;;17.60;99.90;;;;;;4170280;28;20307;-59
2023/07/07 00:39:09;;;;;;;2.00;1.90;;;17.70;99.90;;;;;;4167993;28;20084;-59
2023/07/07 00:41:29;;;;;;;2.42;2.33;;;17.70;99.90;;;;;;4165136;28;20133;-59
2023/07/07 00:44:00;;;;;;;5.03;2.55;;;17.80;99.90;;;;;;4168207;28;20044;-59
2023/07/07 00:46:20;;;;;;;2.47;2.33;;;17.80;99.90;;;;;;4167835;28;20053;-59
2023/07/07 00:48:44;;;;;;;2.88;2.78;;;17.80;99.90;;;;;;4169411;28;20159;-59
2023/07/07 00:51:12;;;;;;;3.45;1.73;;;17.80;99.90;;;;;;4171736;28;20105;-59
2023/07/07 00:53:33;;;;;;;2.28;2.15;;;17.70;99.90;;;;;;4168351;28;20080;-59
2023/07/07 00:56:04;;;;;;;2.40;2.30;;;17.80;99.90;;;;;;4164633;28;20057;-59
2023/07/07 00:58:24;;;;;;;2.50;2.40;;;17.70;99.90;;;;;;4166893;28;20149;-59
2023/07/07 01:00:50;;;;;;;3.05;2.85;;;17.60;99.90;;;;;;4168991;28;20089;-57
2023/07/07 01:03:19;;;;;;;3.38;3.10;;;17.50;99.90;;;;;;4181813;22;20068;-59
2023/07/07 01:05:42;;;;;;;2.30;1.92;;;17.50;99.90;;;;;;4199299;28;20063;-59
2023/07/07 01:08:02;;;;;;;2.90;2.80;;;17.50;99.90;;;;;;4201682;28;20054;-59
2023/07/07 01:10:22;;;;;;;2.38;2.17;;;17.50;99.90;;;;;;4194911;28;20401;-59
2023/07/07 01:12:43;;;;;;;4.43;2.30;;;17.40;99.90;;;;;;4196084;28;20048;-59
2023/07/07 01:15:04;;;;;;;3.10;2.85;;;17.40;99.90;;;;;;4196889;28;20056;-59
2023/07/07 01:17:30;;;;;;;2.70;2.35;;;17.40;99.90;;;;;;4199499;28;20417;-59
2023/07/07 01:20:42;;;;;;;2.33;1.85;;;17.30;99.90;;;;;;4202548;28;20081;-60
2023/07/07 01:23:14;;;;;;;2.38;2.03;;;17.20;99.90;;;;;;4200074;28;20052;-59
2023/07/07 01:26:02;;;;;;;2.55;2.25;;;17.10;99.90;;;;;;4195663;28;20052;-59
2023/07/07 01:28:44;;;;;;;2.42;2.28;;;17.00;99.90;;;;;;4198795;28;20086;-59
2023/07/07 01:31:19;;;;;;;3.25;2.35;;;16.90;99.90;;;;;;4199241;28;20082;-59
2023/07/07 01:33:41;;;;;;;2.70;2.50;;;16.80;99.90;;;;;;4202899;28;20056;-59
2023/07/07 01:36:01;;;;;;;2.80;1.95;;;16.80;99.90;;;;;;4195666;28;20299;-59
2023/07/07 01:38:30;;;;;;;3.30;3.00;;;16.90;99.90;;;;;;4190035;28;20091;-59
2023/07/07 01:40:58;;;;;;;4.72;3.72;;;17.00;99.90;;;;;;4190406;28;20059;-59
2023/07/07 01:43:28;;;;;;;2.70;2.40;;;17.10;99.90;;;;;;4190836;28;20362;-59
2023/07/07 01:45:59;;;;;;;2.63;2.40;;;17.00;99.90;;;;;;4191762;28;20072;-59
2023/07/07 01:48:31;;;;;;;2.40;2.03;;;17.00;99.90;;;;;;4190695;28;20170;-59
2023/07/07 01:50:52;;;;;;;2.30;2.30;;;17.00;99.90;;;;;;4190853;28;20051;-59
2023/07/07 01:53:18;;;;;;;1.98;1.88;;;17.00;99.90;;;;;;4192629;28;20059;-58
2023/07/07 01:55:43;;;;;;;2.13;2.13;;;17.00;99.90;;;;;;4193731;28;20086;-59
2023/07/07 01:58:05;;;;;;;3.05;2.95;;;17.10;99.90;;;;;;4193421;28;20134;-58
2023/07/07 02:00:28;;;;;;;8.38;3.50;;;17.00;99.90;;;;;;4193856;28;20052;-59
2023/07/07 02:02:48;;;;;;;3.00;2.70;;;17.00;99.90;;;;;;4192247;28;20083;-59
2023/07/07 02:05:10;;;;;;;2.95;2.75;;;17.00;99.90;;;;;;4192694;28;20055;-58
2023/07/07 02:07:30;;;;;;;2.13;2.00;;;17.10;99.90;;;;;;4194909;28;20059;-59
2023/07/07 02:09:50;;;;;;;2.25;2.15;;;17.10;99.90;;;;;;4180690;28;20126;-59
2023/07/07 02:12:10;;;;;;;2.38;1.98;;;17.00;99.90;;;;;;4193980;28;20106;-59
2023/07/07 02:14:31;;;;;;;3.35;3.00;;;17.00;99.90;;;;;;4196419;28;20086;-58
2023/07/07 02:16:51;;;;;;;2.58;2.47;;;17.00;99.90;;;;;;4188864;28;20052;-59
2023/07/07 02:19:12;;;;;;;2.75;2.30;;;17.00;99.90;;;;;;4195252;28;20063;-58
2023/07/07 02:21:32;;;;;;;2.03;1.90;;;16.90;99.90;;;;;;4195948;28;20074;-59
2023/07/07 02:23:52;;;;;;;6.07;2.28;;;16.70;99.90;;;;;;4182633;28;20097;-59
2023/07/07 02:26:18;;;;;;;3.35;2.00;;;16.60;99.90;;;;;;4199286;28;20240;-59
2023/07/07 02:28:37;;;;;;;2.00;2.00;;;16.50;99.90;;;;;;4197892;28;20240;-59
2023/07/07 02:30:58;;;;;;;2.58;2.47;;;16.60;99.90;;;;;;4194323;28;20048;-59
2023/07/07 02:33:18;;;;;;;2.65;2.45;;;16.60;99.90;;;;;;4195544;28;20267;-59
2023/07/07 02:35:39;;;;;;;2.88;2.78;;;16.70;99.90;;;;;;4196950;28;20055;-59
2023/07/07 02:37:59;;;;;;;2.97;2.85;;;16.60;99.90;;;;;;4200264;28;20039;-59
2023/07/07 02:40:20;;;;;;;2.83;2.67;;;16.60;99.90;;;;;;4201422;28;20078;-59
2023/07/07 02:42:41;;;;;;;3.05;2.85;;;16.50;99.90;;;;;;4189434;28;20363;-58
2023/07/07 02:45:01;;;;;;;4.32;2.65;;;16.60;99.90;;;;;;4194323;28;20079;-58
2023/07/07 02:47:21;;;;;;;2.78;2.58;;;16.60;99.90;;;;;;4195826;28;20069;-58
2023/07/07 02:49:41;;;;;;;3.38;3.15;;;16.50;99.90;;;;;;4197301;28;20447;-59
2023/07/07 02:52:03;;;;;;;2.83;2.65;;;16.30;99.90;;;;;;4201377;28;20048;-59
2023/07/07 02:54:24;;;;;;;3.00;2.85;;;16.20;99.90;;;;;;4203821;28;20100;-59
2023/07/07 02:56:44;;;;;;;3.70;3.60;;;16.10;99.90;;;;;;4191475;28;20099;-59
2023/07/07 02:59:05;;;;;;;3.75;3.65;;;16.10;99.90;;;;;;4193766;28;20044;-58
2023/07/07 03:01:25;;;;;;;3.85;3.65;;;16.00;99.90;;;;;;4188851;28;20506;-58
2023/07/07 03:03:49;;;;;;;5.57;2.83;;;16.00;99.90;;;;;;4195160;28;20056;-59
2023/07/07 03:06:18;;;;;;;6.07;3.65;;;16.00;99.90;;;;;;4192137;28;20147;-59
2023/07/07 03:08:38;;;;;;;7.97;3.75;;;15.90;99.90;;;;;;4189191;28;20109;-58
2023/07/07 03:11:06;;;;;;;4.13;3.90;;;15.90;99.90;;;;;;4190330;28;20094;-59
2023/07/07 03:13:26;;;;;;;2.50;2.50;;;15.90;99.90;;;;;;4191113;28;20077;-59
2023/07/07 03:15:46;;;;;;;2.00;1.90;;;16.00;99.90;;;;;;4191431;28;20062;-59
2023/07/07 03:18:08;;;;;;;2.80;2.10;;;16.20;99.90;;;;;;4194471;28;20055;-58
2023/07/07 03:20:28;;;;;;;4.07;1.75;;;16.20;99.90;;;;;;4191173;28;20139;-59
2023/07/07 03:22:48;;;;;;;2.63;2.53;;;16.20;99.90;;;;;;4189035;28;20139;-58
2023/07/07 03:25:09;;;;;;;2.53;2.42;;;16.10;99.90;;;;;;4191542;28;20052;-59
2023/07/07 03:27:28;;;;;;;2.97;2.75;;;16.10;99.90;;;;;;4193552;28;20087;-58
2023/07/07 03:29:50;;;;;;;2.90;2.65;;;16.20;99.90;;;;;;4194539;28;20240;-58
2023/07/07 03:32:12;;;;;;;3.33;3.22;;;16.30;99.90;;;;;;4192260;28;20108;-59
2023/07/07 03:34:32;;;;;;;2.50;2.40;;;16.30;99.90;;;;;;4198997;28;20104;-58
2023/07/07 03:36:52;;;;;;;2.95;2.70;;;16.30;99.90;;;;;;4196306;28;20415;-58
2023/07/07 03:39:12;;;;;;;2.45;2.35;;;16.20;99.90;;;;;;4191916;28;20063;-58
2023/07/07 03:41:32;;;;;;;4.25;3.60;;;16.20;99.90;;;;;;4198954;28;20232;-59
2023/07/07 03:43:54;;;;;;;4.15;3.95;;;16.10;99.90;;;;;;4199931;28;20090;-58
2023/07/07 03:46:16;;;;;;;2.80;2.50;;;15.90;99.90;;;;;;4200749;28;20366;-58
2023/07/07 03:48:36;;;;;;;3.57;3.00;;;15.80;99.90;;;;;;4192094;28;20056;-59
2023/07/07 03:50:58;;;;;;;5.13;3.40;;;15.70;99.90;;;;;;4195209;28;20048;-58
2023/07/07 03:53:19;;;;;;;4.35;3.35;;;15.60;99.90;;;;;;4197502;28;20106;-58
2023/07/07 03:55:39;;;;;;;2.85;2.80;;;15.60;99.90;;;;;;4199729;28;20046;-58
2023/07/07 03:58:00;;;;;;;4.38;3.75;;;15.60;99.90;;;;;;4200411;28;20059;-58
2023/07/07 04:00:20;;;;;;;4.57;4.47;;;15.60;99.90;;;;;;4202640;28;20381;-59
2023/07/07 04:02:40;;;;;;;24.23;4.80;;;15.50;99.90;;;;;;4191362;28;20063;-58
2023/07/07 04:05:01;;;;;;;39.17;4.07;;;15.50;99.90;;;;;;4196866;28;20083;-58
2023/07/07 04:07:22;;;;;;;8.07;2.70;;;15.50;99.90;;;;;;4198374;28;20274;-59
2023/07/07 04:09:42;;;;;;;4.43;4.13;;;15.50;99.90;;;;;;4199214;28;20406;-58
2023/07/07 04:12:06;;;;;;;3.53;3.42;;;15.60;99.90;;;;;;4192234;28;20048;-59
2023/07/07 04:14:28;;;;;;;2.83;2.72;;;;;;;;;;4205529;28;20047;-59
2023/07/07 04:16:48;;;;;;;3.90;2.97;;;;;;;;;;4189149;28;20083;-58
2023/07/07 04:19:09;;;;;;;2.88;2.78;;;;;;;;;;4188719;28;20048;-59
2023/07/07 04:21:30;;;;;;;4.10;3.47;;;;;;;;;;4198031;28;20086;-58
2023/07/07 04:23:52;;;;;;;3.58;2.92;;;;;;;;;;4193516;28;20051;-58
2023/07/07 04:26:13;;;;;;;3.67;3.58;;;;;;;;;;4193250;28;20056;-58
2023/07/07 04:28:37;;;;;;;2.70;2.65;;;;;;;;;;4194718;28;20051;-58
2023/07/07 04:30:58;;;;;;;4.25;4.05;;;;;;;;;;4191897;28;20052;-58
2023/07/07 04:33:19;;;;;;;3.05;2.95;;;;;;;;;;4192879;28;20048;-58
2023/07/07 04:35:39;;;;;;;3.00;2.88;;;;;;;;;;4197831;28;20047;-58
2023/07/07 04:38:00;;;;;;;3.47;3.38;;;;;;;;;;4193625;28;20064;-58
2023/07/07 04:40:20;;;;;;;3.58;2.78;;;;;;;;;;4193749;28;20056;-59
2023/07/07 04:42:40;;;;;;;3.75;3.42;;;;;;;;;;4190989;28;20116;-58
2023/07/07 04:45:01;;;;;;;5.55;2.97;;;;;;;;;;4193310;28;20104;-58
2023/07/07 04:47:21;;;;;;;3.97;3.63;;;;;;;;;;4195015;28;20043;-58
2023/07/07 04:49:42;;;;;;;3.85;3.70;;;;;;;;;;4195073;28;20474;-58
2023/07/07 04:52:02;;;;;;;4.32;3.20;;;;;;;;;;4196721;28;20039;-58
2023/07/07 04:54:23;;;;;;;3.10;2.97;;;;;;;;;;4191269;28;20052;-58
2023/07/07 04:56:47;;;;;;;3.33;3.22;;;;;;;;;;4191813;28;20235;-58
2023/07/07 04:59:07;;;;;;;4.45;3.75;;;;;;;;;;4194840;28;20059;-61
2023/07/07 05:01:29;;;;;;;5.25;4.10;;;;;;;;;;4197778;28;20235;-61
2023/07/07 05:03:51;;;;;;;3.70;3.60;;;;;;;;;;4198001;28;20055;-61
2023/07/07 05:06:12;;;;;;;4.57;4.17;;;;;;;;;;4199524;28;20083;-61
2023/07/07 05:08:33;;;;;;;4.10;3.90;;;;;;;;;;4190504;28;20409;-61
2023/07/07 05:10:53;;;;;;;4.25;3.92;;;;;;;;;;4196963;28;20116;-61
2023/07/07 05:13:13;;;;;;;4.38;4.20;;;;;;;;;;4197079;28;20358;-61
2023/07/07 05:15:33;;;;;;;4.18;3.88;;;;;;;;;;4198148;28;20063;-61
2023/07/07 05:17:53;;;;;;;4.22;2.33;;;;;;;;;;4200864;28;20108;-61
2023/07/07 05:20:14;;;;;;;2.80;2.70;;;;;;;;;;4201703;28;20412;-60
2023/07/07 05:22:34;;;;;;;3.53;3.42;;;;;;;;;;4190765;28;20044;-60
2023/07/07 05:24:54;;;;;;;3.30;3.20;;;;;;;;;;4193333;28;20052;-60
2023/07/07 05:27:14;;;;;;;3.75;3.53;;;;;;;;;;4197450;28;20067;-60
2023/07/07 05:29:35;;;;;;;2.78;2.63;;;;;;;;;;4198510;28;20098;-60
2023/07/07 05:31:55;;;;;;;5.53;4.22;;;;;;;;;;4202217;28;20274;-59
2023/07/07 05:34:16;;;;;;;3.38;3.13;;;;;;;;;;4202728;28;20056;-60
2023/07/07 05:36:36;;;;;;;4.57;4.25;;;;;;;;;;4194677;28;20047;-59
2023/07/07 05:38:57;;;;;;;5.55;4.72;;;;;;;;;;4196249;28;20064;-59
2023/07/07 05:41:17;;;;;;;4.00;3.80;;;;;;;;;;4197572;28;20135;-60
2023/07/07 05:43:37;;;;;;;6.57;3.97;;;;;;;;;;4198158;28;20382;-59
2023/07/07 05:46:02;;;;;;;3.00;2.85;;;;;;;;;;4203284;28;20048;-60
2023/07/07 05:48:23;;;;;;;4.43;3.03;;;;;;;;;;4189688;28;20052;-60
2023/07/07 05:50:46;;;;;;;3.63;3.53;;;;;;;;;;4189944;28;20052;-60
2023/07/07 05:53:07;;;;;;;2.67;2.47;;;;;;;;;;4190308;28;20067;-60
2023/07/07 05:55:30;;;;;;;3.58;3.17;;;;;;;;;;4192875;28;20108;-60
2023/07/07 05:57:51;;;;;;;3.63;2.92;;;;;;;;;;4192382;28;20121;-60
2023/07/07 06:00:13;;;;;;;3.75;3.08;;;;;;;;;;4190663;28;20067;-60
2023/07/07 06:02:34;;;;;;;;;;;;;;;;;;4191058;28;20048;-60
2023/07/07 06:04:54;;;;;;;4.00;2.42;;;;;;;;;;4192565;28;20028;-59
2023/07/07 06:07:15;;;;;;;3.28;3.13;;;;;;;;;;4193432;28;20296;-60
2023/07/07 06:09:35;;;;;;;3.33;3.08;;;;;;;;;;4195198;28;20067;-59
2023/07/07 06:11:55;;;;;;;2.92;2.72;;;;;;;;;;4194542;28;20048;-59
2023/07/07 06:14:15;;;;;;;3.13;2.92;;;;;;;;;;4189941;28;20064;-59
2023/07/07 06:16:35;;;;;;;3.20;2.72;;;;;;;;;;4190986;28;20036;-59
2023/07/07 06:18:56;;;;;;;3.08;2.75;;;;;;;;;;4195821;28;20094;-59
2023/07/07 06:21:16;;;;;;;2.35;2.25;;;;;;;;;;4197795;28;20083;-59
2023/07/07 06:23:36;;;;;;;3.15;2.88;;;;;;;;;;4180449;28;20078;-59
2023/07/07 06:25:57;;;;;;;5.88;2.90;;;;;;;;;;4196099;28;20047;-59
2023/07/07 06:28:17;;;;;;;2.75;2.55;;;;;;;;;;4194197;28;20059;-59
2023/07/07 06:30:37;;;;;;;5.07;3.97;;;;;;;;;;4194707;28;20044;-60
2023/07/07 06:32:58;;;;;;;2.65;2.55;;;;;;;;;;4195893;28;20052;-59
2023/07/07 06:35:19;;;;;;;3.00;2.88;;;;;;;;;;4197759;28;20055;-59
2023/07/07 06:37:39;;;;;;;2.55;2.38;;;;;;;;;;4195402;28;20055;-59
2023/07/07 06:39:59;;;;;;;5.95;4.00;;;;;;;;;;4195349;28;20079;-59
2023/07/07 06:42:19;;;;;;;3.08;2.90;;;;;;;;;;4196774;28;20102;-59
2023/07/07 06:44:40;;;;;;;2.75;2.65;;;;;;;;;;4199126;28;20106;-59
2023/07/07 06:47:00;;;;;;;2.13;1.98;;;;;;;;;;4197522;28;20056;-59
2023/07/07 06:49:20;;;;;;;2.88;2.78;;;;;;;;;;4197762;28;20055;-59
2023/07/07 06:51:40;;;;;;;7.22;2.75;;;;;;;;;;4198659;28;20042;-58
2023/07/07 06:54:00;;;;;;;2.55;2.35;;;;;;;;;;4195886;28;20082;-59
2023/07/07 06:56:21;;;;;;;2.72;2.53;;;;;;;;;;4195466;28;20399;-59
2023/07/07 06:58:41;;;;;;;2.75;2.15;;;;;;;;;;4195821;28;20051;-59
2023/07/07 07:01:01;;;;;;;4.25;2.60;;;;;;;;;;4198020;28;20075;-59
2023/07/07 07:03:22;;;;;;;2.55;2.45;;;;;;;;;;4200768;28;20283;-59
2023/07/07 07:05:42;;;;;;;2.75;2.15;;;;;;;;;;4194872;28;20096;-59
2023/07/07 07:08:02;;;;;;;4.07;2.65;;;;;;;;;;4193667;28;20074;-59
2023/07/07 07:10:23;;;;;;;3.70;2.17;;;19.40;99.90;;;;;;4193590;28;20043;-59
2023/07/07 07:12:43;;;;;;;3.25;2.63;;;21.50;99.90;;;;;;4198493;28;20052;-59
2023/07/07 07:15:03;;;;;;;1.98;1.88;;;21.50;99.90;;;;;;4198119;28;20646;-59
2023/07/07 07:17:24;;;;;;;2.60;2.33;;;21.60;99.90;;;;;;4200402;28;20096;-59
2023/07/07 07:19:44;;;;;;;2.45;2.35;;;21.90;99.90;;;;;;4201473;28;20056;-59
2023/07/07 07:22:04;;;;;;;2.47;2.28;;;22.10;99.90;;;;;;4199354;28;20278;-59
2023/07/07 07:24:25;;;;;;;3.45;1.52;;;22.40;99.90;;;;;;4199723;28;20048;-60
2023/07/07 07:26:45;;;;;;;3.35;1.38;;;22.50;99.90;;;;;;4197634;28;20056;-59
2023/07/07 07:29:05;;;;;;;1.45;1.20;;;22.70;99.90;;;;;;4196134;28;20048;-59
2023/07/07 07:31:26;;;;;;;2.25;1.17;;;22.80;99.90;;;;;;4197518;28;20094;-59
2023/07/07 07:33:52;;;;;;;1.20;1.10;;;23.10;99.90;;;;;;4199345;28;20055;-59
2023/07/07 07:36:12;;;;;;;1.92;1.10;;;23.30;99.90;;;;;;4199032;28;20078;-59
2023/07/07 07:38:32;;;;;;;2.22;1.35;;;23.50;99.90;;;;;;4199270;28;20083;-60
2023/07/07 07:40:53;;;;;;;2.17;1.10;;;23.70;99.90;;;;;;4198676;28;20048;-59
2023/07/07 07:43:13;;;;;;;2.13;1.00;;;23.70;99.90;;;;;;4197432;28;20048;-59
2023/07/07 07:45:33;;;;;;;1.23;1.00;;;24.00;99.90;;;;;;4197242;28;20385;-59
2023/07/07 07:47:53;;;;;;;1.15;1.00;;;24.00;99.90;;;;;;4198146;28;20132;-60
2023/07/07 07:50:15;;;;;;;2.05;0.88;;;24.30;99.90;;;;;;4198623;28;20048;-60
2023/07/07 07:52:35;;;;;;;1.08;0.93;;;24.80;99.90;;;;;;4198782;28;20062;-59
2023/07/07 07:54:55;;;;;;;1.02;0.90;;;24.80;99.90;;;;;;4199662;28;20071;-59
2023/07/07 07:57:16;;;;;;;3.60;0.80;;;24.60;99.90;;;;;;4198927;28;20140;-59
2023/07/07 07:59:36;;;;;;;1.73;0.80;;;24.90;99.90;;;;;;4198171;28;20067;-59
2023/07/07 08:01:56;;;;;;;1.45;0.82;;;24.80;99.90;;;;;;4195454;28;20040;-59
2023/07/07 08:04:16;;;;;;;1.02;0.90;;;24.90;99.90;;;;;;4195754;28;20078;-60
2023/07/07 08:06:36;;;;;;;1.15;0.80;;;25.20;99.90;;;;;;4198735;28;20054;-59
2023/07/07 08:08:57;;;;;;;1.02;0.73;;;;;;;;;;4199269;28;20086;-59
2023/07/07 08:11:19;;;;;;;0.85;0.75;;;;;;;;;;4198711;28;20101;-60
2023/07/07 08:13:39;;;;;;;0.80;0.80;;;;;;;;;;4199309;28;20090;-60
2023/07/07 08:16:01;;;;;;;0.70;0.70;;;;;;;;;;4193821;28;20040;-59
2023/07/07 08:18:21;;;;;;;2.38;0.80;;;;;;;;;;4195103;28;20056;-60
2023/07/07 08:20:41;;;;;;;0.70;0.70;;;;;;;;;;4195457;28;20052;-59
2023/07/07 08:23:01;;;;;;;2.35;0.70;;;25.30;99.90;;;;;;4197797;28;20051;-59
2023/07/07 08:25:22;;;;;;;0.70;0.70;;;;;;;;;;4197270;28;20035;-59
2023/07/07 08:27:42;;;;;;;0.60;0.60;;;;;;;;;;4200003;28;20048;-59
2023/07/07 08:30:22;;;;;;;0.60;0.60;;;;;;;;;;4202493;28;20047;-60
2023/07/07 08:32:42;;;;;;;0.80;0.73;;;;;;;;;;4201050;28;20075;-60
2023/07/07 08:35:02;;;;;;;0.70;0.70;;;25.70;99.90;;;;;;4194173;28;20128;-60
2023/07/07 08:37:24;;;;;;;0.80;0.80;;;27.30;99.90;;;;;;4196052;28;20076;-60
2023/07/07 08:39:44;;;;;;;1.58;0.60;;;27.60;99.90;;;;;;4196949;28;20055;-60
2023/07/07 08:42:11;;;;;;;0.60;0.60;;;27.30;99.20;;;;;;4199598;28;20063;-60
2023/07/07 08:44:34;;;;;;;0.60;0.60;;;27.50;98.90;;;;;;4197962;28;20094;-60
2023/07/07 08:47:07;;;;;;;1.35;0.52;;;28.10;98.70;;;;;;4196825;28;20095;-60
2023/07/07 08:49:46;;;;;;;0.60;0.60;;;27.80;97.80;;;;;;4196413;28;20056;-59
2023/07/07 08:52:38;;;;;;;0.50;0.50;;;28.00;99.30;;;;;;4193799;28;20302;-59
2023/07/07 08:55:22;;;;;;;0.60;0.60;;;27.80;96.10;;;;;;4180312;28;20051;-59
2023/07/07 08:57:59;;;;;;;1.35;0.52;;;27.70;95.30;;;;;;4198082;28;20066;-59
2023/07/07 09:01:04;;;;;;;0.60;0.60;;;27.90;94.90;;;;;;4197506;28;20090;-59
2023/07/07 09:03:48;;;;;;;0.60;0.60;;;27.70;94.20;;;;;;4195758;28;20039;-59
2023/07/07 09:06:26;;;;;;;0.50;0.50;;;27.70;94.60;;;;;;4193940;28;20247;-60
2023/07/07 09:09:05;;;;;;;0.60;0.60;;;27.80;94.10;;;;;;4197054;28;20060;-59
2023/07/07 09:11:37;;;;;;;0.75;0.55;;;28.10;95.00;;;;;;4198253;28;20052;-59
2023/07/07 09:13:58;;;;;;;0.60;0.60;;;28.10;94.60;;;;;;4198767;28;20075;-60
2023/07/07 09:16:25;;;;;;;1.67;0.70;;;28.00;93.60;;;;;;4198925;28;20365;-59
2023/07/07 09:18:52;;;;;;;0.60;0.60;;;28.20;93.90;;;;;;4200372;28;20112;-59
2023/07/07 09:21:37;;;;;;;1.25;0.52;;;28.20;93.00;;;;;;4199390;28;20093;-60
2023/07/07 09:24:02;;;;;;;2.15;0.63;;;28.50;94.20;;;;;;4196169;28;20043;-59
2023/07/07 09:26:31;;;;;;;0.60;0.55;;;28.50;94.70;;;;;;4197352;28;20047;-59
2023/07/07 09:28:54;;;;;;;0.55;0.55;;;28.70;93.60;;;;;;4196900;28;20043;-60
2023/07/07 09:31:43;;;;;;;1.20;0.70;;;28.90;94.30;;;;;;4190938;28;20059;-59
2023/07/07 09:34:04;;;;;;;0.50;0.50;;;28.90;93.30;;;;;;4198524;28;20044;-60
2023/07/07 09:36:52;;;;;;;0.60;0.60;;;28.90;92.70;;;;;;4198048;28;20120;-60
2023/07/07 09:39:44;;;;;;;0.80;0.70;;;28.80;91.60;;;;;;4195830;28;20083;-60
2023/07/07 09:42:08;;;;;;;;;;;28.80;91.70;;;;;;4197255;28;20056;-59
2023/07/07 09:44:27;;;;;;;;;;;28.80;91.50;;;;;;4202486;28;19931;-59
2023/07/07 09:47:12;;;;;;;0.50;0.50;;;29.10;93.20;;;;;;4200240;28;19963;-60
2023/07/07 09:49:54;;;;;;;0.50;0.50;;;29.40;93.50;;;;;;4195317;28;20044;-59
2023/07/07 09:52:28;;;;;;;;;;;29.50;92.20;;;;;;4197988;28;20429;-59
2023/07/07 09:54:49;;;;;;;0.60;0.50;;;29.50;93.20;;;;;;4198623;28;19957;-60
2023/07/07 09:57:19;;;;;;;1.17;0.60;;;29.40;92.30;;;;;;4199836;28;20243;-60
2023/07/07 09:59:45;;;;;;;0.90;0.50;;;29.40;93.50;;;;;;4192768;28;20048;-60
2023/07/07 10:02:14;;;;;;;0.75;0.50;;;29.30;92.70;;;;;;4189823;28;20044;-59
2023/07/07 10:04:35;;;;;;;1.65;0.60;;;29.30;93.80;;;;;;4190194;28;20048;-59
2023/07/07 10:06:59;;;;;;;0.65;0.65;;;29.60;93.00;;;;;;4197235;28;20123;-59
2023/07/07 10:09:19;;;;;;;0.88;0.60;;;29.70;93.90;;;;;;4192568;28;20166;-60
2023/07/07 10:11:41;;;;;;;0.55;0.50;;;30.00;93.10;;;;;;4191146;28;20052;-60
2023/07/07 10:14:05;;;;;;;3.33;0.50;;;30.00;92.80;;;;;;4189980;28;20299;-60
2023/07/07 10:16:36;;;;;;;;;;;29.80;92.60;;;;;;4192595;28;20121;-59
2023/07/07 10:18:59;;;;;;;0.70;0.70;;;29.80;93.00;;;;;;4192619;28;19957;-60
2023/07/07 10:21:20;;;;;;;0.50;0.50;;;29.90;92.60;;;;;;4194372;28;20147;-60
2023/07/07 10:23:40;;;;;;;0.52;0.40;;;30.00;92.70;;;;;;4194888;28;20086;-60
2023/07/07 10:26:00;;;;;;;1.23;0.50;;;30.20;92.90;;;;;;4189914;28;20052;-60
2023/07/07 10:28:21;;;;;;;1.85;0.55;;;30.20;92.70;;;;;;4190861;28;20040;-59
2023/07/07 10:30:43;;;;;;;1.40;0.50;;;30.20;91.70;;;;;;4193885;28;20060;-60
2023/07/07 10:33:03;;;;;;;0.55;0.55;;;29.90;91.20;;;;;;4194046;28;20290;-59
2023/07/07 10:35:24;;;;;;;0.70;0.60;;;29.60;91.90;;;;;;4196236;28;20091;-60
2023/07/07 10:37:46;;;;;;;0.55;0.50;;;29.90;93.30;;;;;;4191322;28;20047;-59
2023/07/07 10:40:21;;;;;;;0.60;0.60;;;30.40;91.20;;;;;;4194886;28;20060;-60
2023/07/07 10:42:41;;;;;;;1.05;0.50;;;30.20;92.50;;;;;;4191300;28;20307;-60
2023/07/07 10:45:03;;;;;;;1.02;0.50;;;30.40;91.00;;;;;;4195568;28;20366;-59
2023/07/07 10:47:29;;;;;;;0.68;0.68;;;30.30;91.70;;;;;;4197621;28;20270;-60
2023/07/07 10:49:50;;;;;;;0.60;0.60;;;30.40;91.70;;;;;;4198814;28;20231;-60
2023/07/07 10:52:13;;;;;;;0.50;0.50;;;30.40;92.50;;;;;;4190157;28;20437;-60
2023/07/07 10:54:50;;;;;;;0.60;0.60;;;30.40;90.60;;;;;;4190102;28;20052;-59
2023/07/07 10:57:37;;;;;;;0.52;0.52;;;30.80;91.60;;;;;;4194750;28;20079;-59
2023/07/07 11:00:22;;;;;;;0.50;0.50;;;30.50;91.30;;;;;;4197386;28;20113;-59
2023/07/07 11:03:18;;;;;;;0.68;0.50;;;30.70;91.40;;;;;;4199708;28;20086;-60
2023/07/07 11:05:56;;;;;;;0.50;0.50;;;30.80;91.50;;;;;;4199928;28;20043;-60
2023/07/07 11:09:03;;;;;;;0.50;0.50;;;30.40;90.70;;;;;;4194090;28;20047;-60
2023/07/07 11:11:29;;;;;;;0.50;0.50;;;30.60;92.70;;;;;;4197944;28;20052;-60
2023/07/07 11:14:13;;;;;;;0.60;0.40;;;30.80;90.70;;;;;;4197268;28;20051;-60
2023/07/07 11:16:39;;;;;;;0.50;0.50;;;30.80;91.10;;;;;;4201924;28;20056;-59
2023/07/07 11:19:03;;;;;;;0.50;0.50;;;31.30;91.70;;;;;;4201900;28;20098;-59
2023/07/07 11:21:46;;;;;;;0.50;0.50;;;31.20;91.40;;;;;;4193811;28;20096;-60
2023/07/07 11:24:32;;;;;;;3.28;0.50;;;31.20;91.30;;;;;;4191435;28;20059;-60
2023/07/07 11:27:27;;;;;;;0.47;0.47;;;31.40;89.20;;;;;;4190806;28;20586;-59
2023/07/07 11:29:56;;;;;;;0.68;0.40;;;31.40;90.60;;;;;;4192002;28;20048;-60
2023/07/07 11:32:39;;;;;;;1.48;0.47;;;31.60;90.50;;;;;;4189040;28;20066;-60
2023/07/07 11:35:18;;;;;;;1.30;0.40;;;31.40;90.50;;;;;;4193538;28;20079;-60
2023/07/07 11:38:14;;;;;;;0.40;0.40;;;31.40;89.50;;;;;;4190841;28;20082;-59
2023/07/07 11:41:04;;;;;;;0.88;0.43;;;31.20;90.00;;;;;;4185502;28;20044;-60
2023/07/07 11:43:57;;;;;;;0.40;0.40;;;31.40;90.20;;;;;;4112181;28;20207;-60
2023/07/07 11:46:45;;;;;;;0.43;0.43;;;31.60;91.10;;;;;;4182295;28;20132;-60
2023/07/07 11:49:17;;;;;;;0.57;0.50;;;31.90;89.50;;;;;;4184831;28;20267;-60
2023/07/07 11:51:44;;;;;;;0.50;0.50;;;31.70;88.50;;;;;;4186362;28;20048;-60
2023/07/07 11:54:28;;;;;;;2.33;0.40;;;32.00;89.50;;;;;;4166574;28;20314;-61
2023/07/07 11:57:20;;;;;;;1.48;0.43;;;31.80;90.80;;;;;;4189182;28;20040;-60
2023/07/07 11:59:51;;;;;;;0.38;0.38;;;31.60;89.80;;;;;;4185221;28;20240;-60
2023/07/07 12:02:24;;;;;;;1.25;0.50;;;31.90;89.30;;;;;;4184754;28;20060;-60
2023/07/07 12:04:45;;;;;;;0.43;0.43;;;31.90;87.70;;;;;;4187222;28;20132;-60
2023/07/07 12:07:11;;;;;;;0.47;0.43;;;31.80;87.30;;;;;;4187941;28;20390;-60
2023/07/07 12:09:39;;;;;;;0.43;0.43;;;31.90;90.00;;;;;;4188291;28;20252;-60
2023/07/07 12:12:11;;;;;;;0.40;0.40;;;31.90;86.50;;;;;;4188021;28;20064;-60
2023/07/07 12:14:58;;;;;;;0.40;0.40;;;31.60;85.30;;;;;;4189606;28;20043;-60
2023/07/07 12:17:39;;;;;;;0.40;0.40;;;31.60;85.30;;;;;;4196398;28;20044;-60
2023/07/07 12:20:09;;;;;;;4.88;0.50;;;31.60;85.10;;;;;;4198680;28;20090;-60
2023/07/07 12:22:35;;;;;;;0.50;0.50;;;31.70;85.50;;;;;;4197615;28;20052;-60
2023/07/07 12:25:01;;;;;;;0.40;0.40;;;31.80;87.40;;;;;;4196972;28;20048;-61
2023/07/07 12:27:39;;;;;;;0.43;0.43;;;31.90;89.10;;;;;;4193681;28;20079;-61
2023/07/07 12:30:01;;;;;;;0.40;0.40;;;31.90;85.70;;;;;;4195300;28;20087;-60
2023/07/07 12:32:21;;;;;;;0.73;0.40;;;32.00;83.80;;;;;;4196499;28;20052;-61
2023/07/07 12:35:16;;;;;;;0.73;0.50;;;31.60;85.50;;;;;;4198035;28;20086;-59
2023/07/07 12:37:36;;;;;;;0.50;0.50;;;31.90;86.60;;;;;;4198335;28;20382;-59
2023/07/07 12:40:00;;;;;;;0.57;0.47;;;32.40;86.40;;;;;;4199347;28;20108;-58
2023/07/07 12:42:22;;;;;;;0.50;0.50;;;32.30;83.30;;;;;;4201328;28;20239;-59
2023/07/07 12:44:42;;;;;;;0.50;0.50;;;32.20;84.50;;;;;;4203913;28;20389;-58
2023/07/07 12:47:18;;;;;;;0.50;0.50;;;32.00;83.40;;;;;;4193441;28;20232;-59
2023/07/07 12:49:43;;;;;;;0.40;0.40;;;32.10;83.90;;;;;;4191742;28;20057;-58
2023/07/07 12:52:03;;;;;;;0.50;0.50;;;32.50;85.70;;;;;;4190959;28;20048;-59
2023/07/07 12:54:35;;;;;;;0.50;0.50;;;32.70;79.80;;;;;;4191702;28;20071;-59
2023/07/07 12:57:04;;;;;;;0.52;0.40;;;32.50;81.00;;;;;;4191901;28;20079;-59
2023/07/07 12:59:38;;;;;;;0.40;0.40;;;32.90;85.80;;;;;;4192921;28;20371;-59
2023/07/07 13:02:25;;;;;;;1.75;0.40;;;32.80;84.00;;;;;;4194322;28;20141;-59
2023/07/07 13:05:00;;;;;;;0.40;0.40;;;32.50;83.60;;;;;;4191173;28;20040;-58